createdAt,value
2023-02-05T00:00:26.038Z,60.90
2023-02-05T00:02:52.844Z,60.90
2023-02-05T00:05:19.790Z,60.90
2023-02-05T00:07:46.674Z,60.90
2023-02-05T00:10:15.011Z,61.00
2023-02-05T00:12:42.000Z,60.90
2023-02-05T00:15:12.571Z,60.90
2023-02-05T00:17:39.475Z,60.90
2023-02-05T00:20:09.714Z,60.90
2023-02-05T00:22:36.580Z,60.80
2023-02-05T00:25:03.797Z,60.80
2023-02-05T00:27:30.710Z,60.80
2023-02-05T00:29:57.605Z,60.80
2023-02-05T00:32:24.501Z,60.90
2023-02-05T00:34:53.499Z,60.90
2023-02-05T00:37:20.395Z,61.00
2023-02-05T00:39:47.322Z,60.90
2023-02-05T00:42:14.196Z,60.90
2023-02-05T00:44:41.076Z,60.90
2023-02-05T00:47:10.042Z,60.90
2023-02-05T00:49:36.921Z,60.90
2023-02-05T00:52:06.461Z,61.00
2023-02-05T00:54:33.328Z,61.00
2023-02-05T00:57:05.323Z,61.00
2023-02-05T00:59:34.552Z,61.00
2023-02-05T01:02:03.676Z,61.10
2023-02-05T01:04:30.619Z,61.10
2023-02-05T01:06:57.570Z,61.10
2023-02-05T01:09:24.467Z,61.00
2023-02-05T01:11:55.878Z,61.00
2023-02-05T01:14:22.761Z,61.10
2023-02-05T01:16:51.786Z,61.20
2023-02-05T01:19:18.656Z,61.20
2023-02-05T01:21:45.563Z,61.20
2023-02-05T01:24:12.422Z,61.20
2023-02-05T01:26:41.479Z,61.20
2023-02-05T01:29:11.403Z,61.20
2023-02-05T01:31:38.313Z,61.10
2023-02-05T01:34:07.507Z,61.00
2023-02-05T01:36:34.405Z,60.90
2023-02-05T01:39:05.786Z,60.90
2023-02-05T01:41:32.722Z,60.90
2023-02-05T01:44:11.540Z,60.80
2023-02-05T01:46:44.774Z,60.80
2023-02-05T01:49:26.929Z,60.80
2023-02-05T01:51:57.081Z,60.90
2023-02-05T01:54:29.230Z,60.80
2023-02-05T01:57:03.252Z,60.90
2023-02-05T01:59:34.690Z,60.90
2023-02-05T02:02:06.377Z,61.00
2023-02-05T02:04:49.992Z,61.00
2023-02-05T02:07:22.937Z,61.90
2023-02-05T02:09:50.881Z,61.10
2023-02-05T02:12:32.288Z,61.10
2023-02-05T02:15:16.143Z,61.20
2023-02-05T02:17:47.904Z,61.20
2023-02-05T02:20:26.169Z,61.30
2023-02-05T02:22:58.144Z,61.30
2023-02-05T02:25:54.084Z,61.30
2023-02-05T02:28:45.584Z,61.50
2023-02-05T02:31:36.075Z,61.40
2023-02-05T02:34:11.001Z,62.30
2023-02-05T02:37:01.433Z,61.30
2023-02-05T02:39:40.381Z,61.30
2023-02-05T02:42:16.921Z,61.30
2023-02-05T02:44:55.665Z,61.30
2023-02-05T02:47:32.422Z,61.30
2023-02-05T02:50:06.149Z,61.30
2023-02-05T02:52:39.339Z,61.30
2023-02-05T02:55:11.471Z,61.30
2023-02-05T02:57:44.358Z,61.40
2023-02-05T03:00:25.213Z,61.40
2023-02-05T03:03:00.746Z,61.50
2023-02-05T03:05:32.691Z,61.50
2023-02-05T03:08:21.490Z,61.50
2023-02-05T03:11:01.710Z,61.50
2023-02-05T03:13:29.383Z,61.50
2023-02-05T03:15:56.363Z,61.40
2023-02-05T03:18:23.398Z,61.40
2023-02-05T03:20:56.661Z,62.20
2023-02-05T03:23:24.356Z,61.50
2023-02-05T03:25:54.070Z,61.50
2023-02-05T03:28:21.427Z,61.60
2023-02-05T03:31:11.252Z,61.60
2023-02-05T03:33:58.981Z,61.70
2023-02-05T03:36:59.189Z,61.60
2023-02-05T03:39:43.324Z,61.60
2023-02-05T03:42:25.042Z,61.60
2023-02-05T03:45:21.948Z,61.80
2023-02-05T03:48:27.754Z,61.90
2023-02-05T03:51:27.038Z,62.00
2023-02-05T03:54:12.172Z,62.00
2023-02-05T03:57:00.016Z,61.90
2023-02-05T03:59:29.053Z,62.00
2023-02-05T04:01:59.056Z,61.90
2023-02-05T04:04:28.676Z,62.00
2023-02-05T04:06:55.605Z,62.00
2023-02-05T04:09:22.803Z,62.00
2023-02-05T04:11:49.688Z,62.00
2023-02-05T04:14:19.063Z,62.00
2023-02-05T04:16:45.953Z,61.90
2023-02-05T04:19:12.896Z,61.80
2023-02-05T04:21:39.881Z,61.60
2023-02-05T04:24:07.256Z,61.50
2023-02-05T04:26:34.221Z,61.40
2023-02-05T04:29:03.407Z,61.40
2023-02-05T04:31:32.569Z,61.40
2023-02-05T04:33:59.464Z,61.30
2023-02-05T04:36:28.688Z,61.30
2023-02-05T04:38:55.565Z,61.30
2023-02-05T04:41:22.509Z,61.30
2023-02-05T04:43:49.436Z,61.30
2023-02-05T04:46:16.392Z,61.20
2023-02-05T04:48:43.426Z,61.20
2023-02-05T04:51:13.706Z,61.30
2023-02-05T04:53:41.113Z,61.20
2023-02-05T04:56:14.926Z,61.30
2023-02-05T04:58:45.067Z,61.30
2023-02-05T05:01:19.190Z,61.40
2023-02-05T05:03:46.953Z,61.40
2023-02-05T05:06:15.341Z,61.40
2023-02-05T05:08:47.661Z,61.40
2023-02-05T05:11:18.381Z,61.40
2023-02-05T05:13:49.272Z,61.50
2023-02-05T05:16:21.490Z,61.50
2023-02-05T05:18:51.551Z,61.60
2023-02-05T05:21:20.867Z,61.70
2023-02-05T05:23:47.684Z,61.70
2023-02-05T05:26:14.866Z,61.90
2023-02-05T05:28:43.825Z,61.90
2023-02-05T05:31:17.249Z,61.90
2023-02-05T05:33:44.201Z,61.90
2023-02-05T05:36:11.455Z,61.80
2023-02-05T05:38:39.014Z,61.80
2023-02-05T05:41:24.869Z,61.80
2023-02-05T05:43:54.485Z,61.80
2023-02-05T05:46:26.293Z,61.60
2023-02-05T05:48:56.773Z,61.80
2023-02-05T05:51:30.482Z,61.70
2023-02-05T05:53:59.716Z,61.70
2023-02-05T05:56:29.024Z,61.60
2023-02-05T05:58:55.904Z,61.60
2023-02-05T06:01:23.073Z,61.50
2023-02-05T06:03:50.447Z,61.50
2023-02-05T06:06:17.574Z,61.60
2023-02-05T06:08:44.436Z,61.60
2023-02-05T06:11:13.854Z,61.60
2023-02-05T06:13:41.811Z,61.70
2023-02-05T06:16:08.927Z,61.80
2023-02-05T06:18:35.802Z,61.80
2023-02-05T06:21:12.495Z,61.80
2023-02-05T06:23:39.360Z,61.80
2023-02-05T06:26:06.275Z,61.90
2023-02-05T06:28:36.154Z,61.90
2023-02-05T06:31:05.917Z,61.90
2023-02-05T06:33:32.798Z,61.90
2023-02-05T06:36:01.940Z,61.90
2023-02-05T06:38:28.947Z,62.00
2023-02-05T06:40:55.844Z,62.20
2023-02-05T06:43:22.743Z,62.00
2023-02-05T06:45:49.590Z,62.00
2023-02-05T06:48:19.449Z,62.20
2023-02-05T06:50:46.700Z,62.20
2023-02-05T06:53:14.115Z,62.20
2023-02-05T06:55:41.068Z,62.20
2023-02-05T06:58:07.942Z,62.20
2023-02-05T07:00:35.931Z,62.20
2023-02-05T07:03:03.276Z,62.10
2023-02-05T07:05:30.272Z,62.00
2023-02-05T07:07:57.262Z,62.00
2023-02-05T07:10:24.226Z,61.90
2023-02-05T07:12:51.172Z,61.90
2023-02-05T07:15:18.253Z,61.90
2023-02-05T07:17:45.147Z,62.00
2023-02-05T07:20:14.281Z,62.10
2023-02-05T07:22:47.152Z,62.00
2023-02-05T07:25:16.755Z,62.10
2023-02-05T07:27:46.245Z,62.20
2023-02-05T07:30:14.325Z,62.20
2023-02-05T07:32:41.216Z,62.20
2023-02-05T07:35:08.315Z,62.20
2023-02-05T07:37:37.384Z,62.20
2023-02-05T07:40:05.002Z,62.30
2023-02-05T07:42:31.807Z,62.30
2023-02-05T07:45:01.333Z,62.30
2023-02-05T07:47:31.259Z,62.40
2023-02-05T07:49:58.151Z,62.50
2023-02-05T07:52:25.090Z,62.60
2023-02-05T07:54:52.034Z,62.70
2023-02-05T07:57:21.012Z,62.80
2023-02-05T07:59:47.921Z,62.70
2023-02-05T08:02:14.735Z,62.70
2023-02-05T08:04:43.865Z,62.70
2023-02-05T08:07:14.187Z,62.80
2023-02-05T08:09:43.443Z,62.80
2023-02-05T08:12:10.449Z,62.70
2023-02-05T08:14:37.295Z,62.40
2023-02-05T08:17:06.250Z,62.30
2023-02-05T08:19:35.470Z,62.20
2023-02-05T08:22:02.376Z,62.20
2023-02-05T08:24:31.473Z,62.00
2023-02-05T08:26:58.424Z,61.80
2023-02-05T08:29:25.303Z,61.80
2023-02-05T08:31:52.232Z,61.60
2023-02-05T08:34:20.829Z,61.60
2023-02-05T08:36:50.456Z,61.50
2023-02-05T08:39:17.343Z,61.40
2023-02-05T08:41:44.507Z,61.30
2023-02-05T08:44:11.393Z,61.30
2023-02-05T08:46:49.363Z,61.20
2023-02-05T08:49:18.073Z,61.20
2023-02-05T08:51:47.779Z,61.20
2023-02-05T08:54:15.444Z,61.20
2023-02-05T08:56:44.815Z,61.20
2023-02-05T08:59:12.706Z,61.20
2023-02-05T09:01:41.193Z,61.20
2023-02-05T09:04:23.447Z,61.10
2023-02-05T09:06:52.932Z,61.20
2023-02-05T09:09:19.917Z,61.20
2023-02-05T09:11:50.535Z,61.30
2023-02-05T09:14:19.917Z,61.30
2023-02-05T09:16:49.126Z,61.40
2023-02-05T09:19:18.368Z,61.40
2023-02-05T09:21:45.348Z,61.40
2023-02-05T09:24:12.172Z,61.40
2023-02-05T09:26:39.107Z,62.20
2023-02-05T09:29:05.934Z,61.40
2023-02-05T09:31:35.070Z,61.30
2023-02-05T09:34:03.553Z,61.20
2023-02-05T09:36:30.478Z,61.10
2023-02-05T09:39:13.366Z,61.20
2023-02-05T09:42:02.363Z,61.20
2023-02-05T09:45:13.227Z,61.10
2023-02-05T09:48:01.338Z,61.10
2023-02-05T09:50:30.099Z,61.10
2023-02-05T09:53:06.023Z,61.00
2023-02-05T09:55:47.584Z,61.00
2023-02-05T09:58:20.958Z,60.90
2023-02-05T10:01:02.306Z,60.90
2023-02-05T10:03:42.472Z,60.80
2023-02-05T10:07:25.409Z,60.80
2023-02-05T10:10:10.364Z,60.80
2023-02-05T10:12:37.205Z,60.80
2023-02-05T10:15:50.803Z,60.80
2023-02-05T10:18:52.205Z,60.70
2023-02-05T10:21:31.934Z,60.90
2023-02-05T10:24:24.074Z,60.80
2023-02-05T10:26:52.409Z,60.60
2023-02-05T10:29:52.413Z,60.40
2023-02-05T10:32:25.693Z,60.30
2023-02-05T10:35:05.672Z,60.30
2023-02-05T10:37:58.527Z,60.30
2023-02-05T10:40:34.961Z,60.30
2023-02-05T10:43:22.813Z,60.30
2023-02-05T10:45:53.627Z,60.40
2023-02-05T10:48:51.092Z,60.30
2023-02-05T10:51:27.941Z,60.30
2023-02-05T10:53:58.180Z,60.40
2023-02-05T10:56:27.634Z,60.40
2023-02-05T10:59:01.404Z,60.50
2023-02-05T11:01:38.841Z,60.50
2023-02-05T11:04:18.069Z,60.50
2023-02-05T11:06:49.082Z,60.60
2023-02-05T11:09:40.285Z,60.60
2023-02-05T11:12:26.619Z,60.50
2023-02-05T11:15:01.011Z,60.40
2023-02-05T11:17:40.019Z,60.30
2023-02-05T11:20:17.745Z,60.30
2023-02-05T11:22:54.241Z,60.30
2023-02-05T11:25:30.428Z,61.00
2023-02-05T11:28:06.662Z,60.20
2023-02-05T11:30:55.660Z,60.30
2023-02-05T11:33:22.793Z,60.40
2023-02-05T11:36:16.391Z,60.40
2023-02-05T11:38:47.135Z,60.60
2023-02-05T11:41:48.025Z,60.70
2023-02-05T11:44:30.351Z,61.60
2023-02-05T11:47:00.548Z,60.80
2023-02-05T11:49:41.287Z,60.80
2023-02-05T11:52:15.473Z,60.80
2023-02-05T11:54:47.549Z,60.70
2023-02-05T11:57:17.378Z,60.70
2023-02-05T11:59:56.326Z,60.70
2023-02-05T12:02:31.136Z,60.70
2023-02-05T12:05:13.092Z,60.70
2023-02-05T12:08:16.579Z,60.80
2023-02-05T12:11:11.848Z,60.90
2023-02-05T12:13:52.126Z,60.90
2023-02-05T12:16:50.330Z,60.80
2023-02-05T12:19:55.956Z,61.00
2023-02-05T12:22:47.280Z,60.90
2023-02-05T12:25:35.816Z,61.00
2023-02-05T12:28:19.076Z,61.00
2023-02-05T12:31:22.421Z,61.20
2023-02-05T12:34:16.920Z,61.40
2023-02-05T12:37:11.495Z,61.30
2023-02-05T12:39:54.891Z,61.30
2023-02-05T12:42:37.438Z,61.50
2023-02-05T12:45:04.321Z,61.40
2023-02-05T12:48:12.416Z,62.40
2023-02-05T12:51:18.285Z,61.80
2023-02-05T12:54:03.354Z,61.80
2023-02-05T12:57:01.333Z,61.80
2023-02-05T12:59:52.032Z,61.80
2023-02-05T13:02:56.382Z,61.80
2023-02-05T13:05:32.667Z,61.90
2023-02-05T13:08:21.088Z,61.80
2023-02-05T13:10:56.766Z,61.90
2023-02-05T13:13:56.392Z,62.10
2023-02-05T13:16:41.301Z,62.10
2023-02-05T13:19:40.891Z,62.10
2023-02-05T13:22:38.330Z,62.30
2023-02-05T13:25:44.415Z,62.20
2023-02-05T13:28:55.049Z,62.20
2023-02-05T13:31:43.365Z,62.20
2023-02-05T13:34:15.412Z,62.00
2023-02-05T13:37:27.685Z,61.90
2023-02-05T13:40:24.952Z,62.00
2023-02-05T13:43:06.789Z,62.00
2023-02-05T13:46:10.525Z,62.00
2023-02-05T13:48:49.691Z,62.20
2023-02-05T13:51:34.569Z,62.10
2023-02-05T13:54:38.709Z,62.10
2023-02-05T13:57:32.884Z,62.20
2023-02-05T14:00:03.774Z,62.20
2023-02-05T14:02:45.923Z,62.20
2023-02-05T14:05:14.872Z,62.20
2023-02-05T14:07:50.970Z,62.20
2023-02-05T14:10:39.946Z,62.30
2023-02-05T14:13:32.522Z,62.40
2023-02-05T14:16:28.056Z,62.30
2023-02-05T14:19:00.905Z,62.30
2023-02-05T14:21:30.741Z,62.20
2023-02-05T14:24:47.960Z,62.20
2023-02-05T14:27:42.139Z,62.40
2023-02-05T14:30:30.885Z,62.30
2023-02-05T14:33:08.105Z,62.30
2023-02-05T14:35:41.032Z,62.20
2023-02-05T14:38:34.470Z,62.20
2023-02-05T14:41:14.143Z,62.20
2023-02-05T14:43:46.483Z,62.10
2023-02-05T14:46:46.270Z,62.10
2023-02-05T14:49:47.398Z,62.10
2023-02-05T14:52:32.647Z,62.20
2023-02-05T14:55:05.870Z,62.10
2023-02-05T14:57:51.111Z,62.10
2023-02-05T15:00:39.012Z,62.20
2023-02-05T15:03:05.977Z,62.30
2023-02-05T15:05:45.077Z,62.20
2023-02-05T15:08:36.207Z,62.30
2023-02-05T15:11:26.127Z,62.20
2023-02-05T15:14:21.392Z,62.30
2023-02-05T15:17:06.606Z,62.40
2023-02-05T15:19:55.913Z,62.40
2023-02-05T15:22:37.541Z,62.40
2023-02-05T15:25:30.743Z,62.40
2023-02-05T15:28:04.949Z,62.30
2023-02-05T15:31:17.202Z,62.40
2023-02-05T15:34:32.203Z,62.40
2023-02-05T15:37:08.074Z,62.50
2023-02-05T15:39:56.653Z,62.50
2023-02-05T15:42:36.549Z,62.70
2023-02-05T15:45:26.506Z,62.60
2023-02-05T15:48:13.455Z,62.70
2023-02-05T15:51:09.983Z,62.60
2023-02-05T15:53:43.807Z,62.70
2023-02-05T15:56:22.583Z,62.70
2023-02-05T15:59:18.472Z,62.80
2023-02-05T16:01:59.588Z,62.80
2023-02-05T16:04:41.219Z,62.80
2023-02-05T16:07:26.658Z,63.00
2023-02-05T16:10:00.898Z,63.00
2023-02-05T16:12:27.942Z,63.00
2023-02-05T16:15:07.057Z,63.00
2023-02-05T16:17:39.148Z,63.20
2023-02-05T16:20:29.136Z,63.10
2023-02-05T16:23:24.659Z,63.10
2023-02-05T16:26:11.094Z,63.10
2023-02-05T16:28:45.741Z,63.40
2023-02-05T16:31:21.200Z,63.30
2023-02-05T16:34:18.406Z,63.30
2023-02-05T16:36:50.199Z,63.70
2023-02-05T16:39:27.794Z,63.50
2023-02-05T16:42:29.021Z,63.50
2023-02-05T16:45:20.432Z,63.80
2023-02-05T16:48:29.393Z,63.80
2023-02-05T16:51:01.757Z,64.00
2023-02-05T16:53:32.145Z,63.70
2023-02-05T16:56:17.982Z,63.80
2023-02-05T16:58:49.941Z,64.10
2023-02-05T17:01:28.866Z,64.00
2023-02-05T17:03:58.846Z,64.20
2023-02-05T17:06:38.067Z,64.20
2023-02-05T17:09:05.755Z,64.40
2023-02-05T17:11:38.123Z,64.30
2023-02-05T17:14:13.876Z,64.30
2023-02-05T17:16:42.361Z,64.50
2023-02-05T17:19:24.882Z,64.20
2023-02-05T17:22:15.996Z,64.40
2023-02-05T17:24:48.017Z,64.50
2023-02-05T17:27:33.933Z,64.30
2023-02-05T17:30:05.986Z,64.30
2023-02-05T17:32:33.274Z,64.30
2023-02-05T17:35:00.517Z,64.30
2023-02-05T17:37:30.196Z,64.20
2023-02-05T17:39:57.811Z,64.30
2023-02-05T17:42:26.563Z,64.20
2023-02-05T17:44:53.887Z,64.30
2023-02-05T17:47:23.950Z,64.40
2023-02-05T17:49:50.863Z,64.40
2023-02-05T17:52:20.577Z,64.30
2023-02-05T17:54:49.952Z,64.30
2023-02-05T17:57:22.400Z,64.30
2023-02-05T17:59:56.735Z,64.30
2023-02-05T18:02:23.744Z,64.10
2023-02-05T18:04:50.719Z,64.10
2023-02-05T18:07:32.131Z,64.00
2023-02-05T18:09:59.615Z,63.90
2023-02-05T18:12:27.308Z,64.00
2023-02-05T18:14:55.067Z,63.90
2023-02-05T18:17:24.327Z,63.90
2023-02-05T18:19:51.256Z,63.90
2023-02-05T18:22:21.514Z,63.90
2023-02-05T18:24:48.431Z,63.90
2023-02-05T18:27:18.927Z,63.80
2023-02-05T18:29:45.859Z,63.80
2023-02-05T18:32:12.835Z,63.90
2023-02-05T18:34:40.096Z,63.80
2023-02-05T18:37:07.162Z,63.80
2023-02-05T18:39:34.031Z,63.80
2023-02-05T18:42:01.388Z,63.70
2023-02-05T18:44:30.496Z,63.60
2023-02-05T18:47:00.223Z,63.60
2023-02-05T18:49:27.170Z,63.50
2023-02-05T18:51:56.666Z,63.50
2023-02-05T18:54:23.966Z,63.60
2023-02-05T18:56:54.365Z,63.50
2023-02-05T18:59:25.648Z,63.50
2023-02-05T19:01:53.005Z,63.50
2023-02-05T19:04:25.833Z,63.40
2023-02-05T19:06:53.540Z,63.50
2023-02-05T19:09:25.001Z,63.40
2023-02-05T19:11:58.030Z,63.40
2023-02-05T19:14:27.546Z,63.40
2023-02-05T19:16:56.979Z,63.40
2023-02-05T19:19:31.096Z,63.40
2023-02-05T19:22:02.210Z,63.40
2023-02-05T19:24:29.465Z,63.40
2023-02-05T19:26:59.235Z,63.50
2023-02-05T19:29:27.540Z,63.50
2023-02-05T19:31:54.746Z,63.50
2023-02-05T19:34:22.261Z,63.40
2023-02-05T19:36:53.038Z,63.40
2023-02-05T19:39:22.172Z,63.40
2023-02-05T19:41:49.095Z,63.40
2023-02-05T19:44:21.411Z,63.50
2023-02-05T19:46:51.086Z,63.50
2023-02-05T19:49:21.256Z,63.50
2023-02-05T19:51:55.101Z,64.40
2023-02-05T19:54:22.805Z,63.60
2023-02-05T19:56:52.686Z,63.60
2023-02-05T19:59:24.672Z,63.60
2023-02-05T20:01:58.556Z,63.60
2023-02-05T20:04:28.478Z,63.60
2023-02-05T20:06:59.920Z,64.40
2023-02-05T20:09:27.834Z,63.70
2023-02-05T20:11:57.509Z,63.70
2023-02-05T20:14:24.524Z,63.70
2023-02-05T20:16:54.322Z,63.70
2023-02-05T20:19:23.699Z,63.70
2023-02-05T20:21:50.900Z,63.70
2023-02-05T20:24:17.887Z,63.70
2023-02-05T20:26:48.380Z,63.70
2023-02-05T20:29:35.213Z,63.70
2023-02-05T20:32:05.448Z,63.80
2023-02-05T20:34:35.965Z,63.80
2023-02-05T20:37:07.144Z,63.70
2023-02-05T20:39:39.677Z,63.80
2023-02-05T20:42:06.716Z,63.80
2023-02-05T20:44:36.227Z,63.80
2023-02-05T20:47:07.228Z,63.80
2023-02-05T20:49:35.675Z,63.70
2023-02-05T20:52:05.371Z,63.70
2023-02-05T20:54:35.448Z,63.70
2023-02-05T20:57:02.779Z,63.60
2023-02-05T20:59:33.137Z,64.00
2023-02-05T21:02:00.534Z,63.70
2023-02-05T21:04:27.477Z,63.70
2023-02-05T21:06:56.529Z,63.70
2023-02-05T21:09:23.425Z,63.70
2023-02-05T21:11:55.199Z,63.70
2023-02-05T21:14:22.899Z,63.60
2023-02-05T21:16:49.940Z,63.60
2023-02-05T21:19:18.512Z,63.50
2023-02-05T21:21:45.572Z,63.50
2023-02-05T21:24:17.408Z,63.50
2023-02-05T21:26:46.996Z,63.40
2023-02-05T21:29:18.479Z,63.40
2023-02-05T21:31:49.273Z,63.40
2023-02-05T21:34:23.494Z,63.50
2023-02-05T21:36:56.360Z,63.40
2023-02-05T21:39:23.929Z,63.40
2023-02-05T21:41:53.959Z,63.40
2023-02-05T21:44:23.014Z,63.40
2023-02-05T21:46:50.019Z,63.30
2023-02-05T21:49:18.986Z,63.40
2023-02-05T21:51:47.961Z,63.40
2023-02-05T21:54:15.035Z,63.40
2023-02-05T21:56:43.551Z,63.30
2023-02-05T21:59:15.564Z,63.40
2023-02-05T22:01:43.254Z,63.40
2023-02-05T22:04:15.968Z,63.30
2023-02-05T22:06:46.030Z,63.40
2023-02-05T22:09:16.823Z,63.40
2023-02-05T22:11:44.728Z,63.40
2023-02-05T22:14:14.123Z,63.50
2023-02-05T22:16:41.335Z,63.50
2023-02-05T22:19:08.947Z,63.50
2023-02-05T22:21:47.498Z,63.50
2023-02-05T22:24:17.222Z,63.60
2023-02-05T22:26:45.530Z,63.60
2023-02-05T22:29:16.110Z,63.60
2023-02-05T22:31:44.506Z,63.70
2023-02-05T22:34:11.847Z,63.70
2023-02-05T22:36:38.803Z,63.80
2023-02-05T22:39:06.459Z,63.90
2023-02-05T22:41:39.789Z,63.90
2023-02-05T22:44:08.826Z,63.80
2023-02-05T22:46:43.469Z,63.80
2023-02-05T22:49:16.917Z,63.90
2023-02-05T22:51:45.207Z,63.80
2023-02-05T22:54:13.925Z,63.90
2023-02-05T22:56:40.926Z,63.80
2023-02-05T22:59:10.334Z,63.80
2023-02-05T23:01:41.083Z,63.90
2023-02-05T23:04:09.338Z,63.90
2023-02-05T23:06:40.130Z,63.90
2023-02-05T23:09:16.281Z,63.90
2023-02-05T23:11:43.892Z,63.90
2023-02-05T23:14:13.403Z,63.90
2023-02-05T23:16:45.967Z,63.90
2023-02-05T23:19:20.043Z,63.90
2023-02-05T23:21:48.204Z,64.00
2023-02-05T23:24:16.070Z,63.90
2023-02-05T23:26:46.980Z,64.70
2023-02-05T23:29:16.132Z,63.90
2023-02-05T23:31:43.746Z,63.90
2023-02-05T23:34:13.786Z,63.90
2023-02-05T23:36:41.101Z,63.90
2023-02-05T23:39:10.729Z,63.90
2023-02-05T23:41:37.754Z,63.90
2023-02-05T23:44:18.168Z,64.00
2023-02-05T23:46:47.509Z,63.90
2023-02-05T23:49:20.939Z,63.90
2023-02-05T23:51:48.602Z,63.90
2023-02-05T23:54:15.738Z,64.00
2023-02-05T23:56:42.836Z,63.90
2023-02-05T23:59:12.271Z,64.00
